sensor_id;sensor_type;location;lat;lon;timestamp;temperature;humidity
67555;HTU21D;54385;53.516;49.456;2024-02-28T00:00:11;21.01;8.83
67555;HTU21D;54385;53.516;49.456;2024-02-28T00:02:38;20.99;8.85
67555;HTU21D;54385;53.516;49.456;2024-02-28T00:05:04;20.98;8.85
67555;HTU21D;54385;53.516;49.456;2024-02-28T00:07:31;20.93;8.88
67555;HTU21D;54385;53.516;49.456;2024-02-28T00:09:58;20.94;8.88
67555;HTU21D;54385;53.516;49.456;2024-02-28T00:12:24;20.91;8.90
67555;HTU21D;54385;53.516;49.456;2024-02-28T00:14:54;20.90;8.92
67555;HTU21D;54385;53.516;49.456;2024-02-28T00:17:20;20.92;8.90
67555;HTU21D;54385;53.516;49.456;2024-02-28T00:19:51;20.91;8.90
67555;HTU21D;54385;53.516;49.456;2024-02-28T00:22:21;20.89;8.88
67555;HTU21D;54385;53.516;49.456;2024-02-28T00:24:48;20.87;8.90
67555;HTU21D;54385;53.516;49.456;2024-02-28T00:27:14;20.87;8.91
67555;HTU21D;54385;53.516;49.456;2024-02-28T00:29:41;20.86;8.92
67555;HTU21D;54385;53.516;49.456;2024-02-28T00:32:07;20.86;8.92
67555;HTU21D;54385;53.516;49.456;2024-02-28T00:34:34;20.85;8.91
67555;HTU21D;54385;53.516;49.456;2024-02-28T00:37:00;20.86;8.91
67555;HTU21D;54385;53.516;49.456;2024-02-28T00:39:27;20.84;8.91
67555;HTU21D;54385;53.516;49.456;2024-02-28T00:41:54;20.83;8.91
67555;HTU21D;54385;53.516;49.456;2024-02-28T00:44:20;20.81;8.92
67555;HTU21D;54385;53.516;49.456;2024-02-28T00:46:47;20.81;8.88
67555;HTU21D;54385;53.516;49.456;2024-02-28T00:49:13;20.80;8.92
67555;HTU21D;54385;53.516;49.456;2024-02-28T00:51:39;20.79;8.92
67555;HTU21D;54385;53.516;49.456;2024-02-28T00:54:06;20.79;8.91
67555;HTU21D;54385;53.516;49.456;2024-02-28T00:56:34;20.76;8.91
67555;HTU21D;54385;53.516;49.456;2024-02-28T00:59:01;20.76;8.92
67555;HTU21D;54385;53.516;49.456;2024-02-28T01:01:27;20.73;8.92
67555;HTU21D;54385;53.516;49.456;2024-02-28T01:03:54;20.72;8.94
67555;HTU21D;54385;53.516;49.456;2024-02-28T01:06:21;20.71;8.92
67555;HTU21D;54385;53.516;49.456;2024-02-28T01:08:47;20.71;8.92
67555;HTU21D;54385;53.516;49.456;2024-02-28T01:11:15;20.71;8.91
67555;HTU21D;54385;53.516;49.456;2024-02-28T01:13:41;20.70;8.91
67555;HTU21D;54385;53.516;49.456;2024-02-28T01:16:09;20.68;8.90
67555;HTU21D;54385;53.516;49.456;2024-02-28T01:18:35;20.68;8.90
67555;HTU21D;54385;53.516;49.456;2024-02-28T01:21:02;20.68;8.89
67555;HTU21D;54385;53.516;49.456;2024-02-28T01:23:28;20.66;8.88
67555;HTU21D;54385;53.516;49.456;2024-02-28T01:25:55;20.66;8.90
67555;HTU21D;54385;53.516;49.456;2024-02-28T01:28:21;20.64;8.90
67555;HTU21D;54385;53.516;49.456;2024-02-28T01:30:48;20.63;8.92
67555;HTU21D;54385;53.516;49.456;2024-02-28T01:33:15;20.64;8.91
67555;HTU21D;54385;53.516;49.456;2024-02-28T01:35:42;20.62;8.94
67555;HTU21D;54385;53.516;49.456;2024-02-28T01:38:08;20.62;8.95
67555;HTU21D;54385;53.516;49.456;2024-02-28T01:40:35;20.63;8.95
67555;HTU21D;54385;53.516;49.456;2024-02-28T01:43:08;20.62;8.98
67555;HTU21D;54385;53.516;49.456;2024-02-28T01:45:34;20.61;8.99
67555;HTU21D;54385;53.516;49.456;2024-02-28T01:48:02;20.59;9.01
67555;HTU21D;54385;53.516;49.456;2024-02-28T01:50:29;20.59;9.03
67555;HTU21D;54385;53.516;49.456;2024-02-28T01:52:55;20.58;9.05
67555;HTU21D;54385;53.516;49.456;2024-02-28T01:55:22;20.57;9.07
67555;HTU21D;54385;53.516;49.456;2024-02-28T01:57:48;20.58;9.07
67555;HTU21D;54385;53.516;49.456;2024-02-28T02:00:15;20.58;9.09
67555;HTU21D;54385;53.516;49.456;2024-02-28T02:02:44;20.58;9.08
67555;HTU21D;54385;53.516;49.456;2024-02-28T02:05:10;20.57;9.09
67555;HTU21D;54385;53.516;49.456;2024-02-28T02:07:37;20.57;9.11
67555;HTU21D;54385;53.516;49.456;2024-02-28T02:10:05;20.56;9.12
67555;HTU21D;54385;53.516;49.456;2024-02-28T02:12:35;20.57;9.12
67555;HTU21D;54385;53.516;49.456;2024-02-28T02:15:01;20.55;9.14
67555;HTU21D;54385;53.516;49.456;2024-02-28T02:17:28;20.55;9.14
67555;HTU21D;54385;53.516;49.456;2024-02-28T02:19:54;20.55;9.16
67555;HTU21D;54385;53.516;49.456;2024-02-28T02:22:21;20.55;9.16
67555;HTU21D;54385;53.516;49.456;2024-02-28T02:24:53;20.55;9.18
67555;HTU21D;54385;53.516;49.456;2024-02-28T02:27:19;20.53;9.21
67555;HTU21D;54385;53.516;49.456;2024-02-28T02:29:46;20.50;9.21
67555;HTU21D;54385;53.516;49.456;2024-02-28T02:32:12;20.51;9.22
67555;HTU21D;54385;53.516;49.456;2024-02-28T02:34:39;20.51;9.23
67555;HTU21D;54385;53.516;49.456;2024-02-28T02:37:05;20.50;9.24
67555;HTU21D;54385;53.516;49.456;2024-02-28T02:39:34;20.49;9.21
67555;HTU21D;54385;53.516;49.456;2024-02-28T02:42:01;20.48;8.95
67555;HTU21D;54385;53.516;49.456;2024-02-28T02:44:28;20.47;8.72
67555;HTU21D;54385;53.516;49.456;2024-02-28T02:46:54;20.45;8.53
67555;HTU21D;54385;53.516;49.456;2024-02-28T02:49:21;20.46;8.34
67555;HTU21D;54385;53.516;49.456;2024-02-28T02:51:47;20.42;8.20
67555;HTU21D;54385;53.516;49.456;2024-02-28T02:54:14;20.43;7.98
67555;HTU21D;54385;53.516;49.456;2024-02-28T02:56:43;20.41;7.64
67555;HTU21D;54385;53.516;49.456;2024-02-28T02:59:10;20.37;7.60
67555;HTU21D;54385;53.516;49.456;2024-02-28T03:01:37;20.34;7.43
67555;HTU21D;54385;53.516;49.456;2024-02-28T03:04:04;20.31;7.26
67555;HTU21D;54385;53.516;49.456;2024-02-28T03:06:31;20.26;7.09
67555;HTU21D;54385;53.516;49.456;2024-02-28T03:08:58;20.25;6.99
67555;HTU21D;54385;53.516;49.456;2024-02-28T03:11:25;20.21;6.83
67555;HTU21D;54385;53.516;49.456;2024-02-28T03:13:52;20.20;6.76
67555;HTU21D;54385;53.516;49.456;2024-02-28T03:16:21;20.19;7.06
67555;HTU21D;54385;53.516;49.456;2024-02-28T03:18:47;20.19;7.54
67555;HTU21D;54385;53.516;49.456;2024-02-28T03:21:14;20.18;8.00
67555;HTU21D;54385;53.516;49.456;2024-02-28T03:23:40;20.20;8.22
67555;HTU21D;54385;53.516;49.456;2024-02-28T03:26:07;20.19;8.33
67555;HTU21D;54385;53.516;49.456;2024-02-28T03:28:33;20.20;8.35
67555;HTU21D;54385;53.516;49.456;2024-02-28T03:31:00;20.19;8.40
67555;HTU21D;54385;53.516;49.456;2024-02-28T03:33:30;20.18;8.54
67555;HTU21D;54385;53.516;49.456;2024-02-28T03:35:59;20.17;8.45
67555;HTU21D;54385;53.516;49.456;2024-02-28T03:38:25;20.18;8.49
67555;HTU21D;54385;53.516;49.456;2024-02-28T03:40:55;20.18;8.47
67555;HTU21D;54385;53.516;49.456;2024-02-28T03:43:23;20.20;8.36
67555;HTU21D;54385;53.516;49.456;2024-02-28T03:45:50;20.19;8.52
67555;HTU21D;54385;53.516;49.456;2024-02-28T03:48:17;0.00;8.64
67555;HTU21D;54385;53.516;49.456;2024-02-28T03:50:43;20.18;9.57
67555;HTU21D;54385;53.516;49.456;2024-02-28T03:53:13;20.21;9.84
67555;HTU21D;54385;53.516;49.456;2024-02-28T03:55:51;20.29;10.05
67555;HTU21D;54385;53.516;49.456;2024-02-28T03:58:18;20.37;10.32
67555;HTU21D;54385;53.516;49.456;2024-02-28T04:00:44;20.46;10.37
67555;HTU21D;54385;53.516;49.456;2024-02-28T04:03:13;20.49;10.45
67555;HTU21D;54385;53.516;49.456;2024-02-28T04:05:41;20.54;10.45
67555;HTU21D;54385;53.516;49.456;2024-02-28T04:08:08;20.62;10.89
67555;HTU21D;54385;53.516;49.456;2024-02-28T04:10:38;20.71;11.68
67555;HTU21D;54385;53.516;49.456;2024-02-28T04:13:04;20.81;12.08
67555;HTU21D;54385;53.516;49.456;2024-02-28T04:15:34;20.88;12.34
67555;HTU21D;54385;53.516;49.456;2024-02-28T04:18:01;20.98;12.65
67555;HTU21D;54385;53.516;49.456;2024-02-28T04:20:28;21.07;12.91
67555;HTU21D;54385;53.516;49.456;2024-02-28T04:22:58;21.16;13.04
67555;HTU21D;54385;53.516;49.456;2024-02-28T04:25:28;21.25;13.31
67555;HTU21D;54385;53.516;49.456;2024-02-28T04:27:57;21.32;13.84
67555;HTU21D;54385;53.516;49.456;2024-02-28T04:30:29;21.38;13.78
67555;HTU21D;54385;53.516;49.456;2024-02-28T04:33:09;21.43;14.25
67555;HTU21D;54385;53.516;49.456;2024-02-28T04:35:51;21.49;14.00
67555;HTU21D;54385;53.516;49.456;2024-02-28T04:38:20;21.54;14.26
67555;HTU21D;54385;53.516;49.456;2024-02-28T04:40:47;21.60;13.90
67555;HTU21D;54385;53.516;49.456;2024-02-28T04:43:18;21.65;13.74
67555;HTU21D;54385;53.516;49.456;2024-02-28T04:45:44;21.73;13.65
67555;HTU21D;54385;53.516;49.456;2024-02-28T04:48:14;21.81;13.52
67555;HTU21D;54385;53.516;49.456;2024-02-28T04:50:41;21.88;13.41
67555;HTU21D;54385;53.516;49.456;2024-02-28T04:53:08;21.92;13.44
67555;HTU21D;54385;53.516;49.456;2024-02-28T04:55:41;21.95;13.66
67555;HTU21D;54385;53.516;49.456;2024-02-28T04:58:12;22.03;13.69
67555;HTU21D;54385;53.516;49.456;2024-02-28T05:00:41;22.09;13.63
67555;HTU21D;54385;53.516;49.456;2024-02-28T05:03:08;22.11;13.69
67555;HTU21D;54385;53.516;49.456;2024-02-28T05:05:37;22.18;14.10
67555;HTU21D;54385;53.516;49.456;2024-02-28T05:08:04;22.24;13.93
67555;HTU21D;54385;53.516;49.456;2024-02-28T05:10:31;22.32;13.79
67555;HTU21D;54385;53.516;49.456;2024-02-28T05:12:58;22.35;13.70
67555;HTU21D;54385;53.516;49.456;2024-02-28T05:15:28;22.42;13.62
67555;HTU21D;54385;53.516;49.456;2024-02-28T05:17:55;22.49;13.59
67555;HTU21D;54385;53.516;49.456;2024-02-28T05:20:23;22.55;13.57
67555;HTU21D;54385;53.516;49.456;2024-02-28T05:22:50;22.60;13.41
67555;HTU21D;54385;53.516;49.456;2024-02-28T05:25:20;22.66;13.28
67555;HTU21D;54385;53.516;49.456;2024-02-28T05:27:47;22.69;13.33
67555;HTU21D;54385;53.516;49.456;2024-02-28T05:30:16;22.72;13.62
67555;HTU21D;54385;53.516;49.456;2024-02-28T05:32:43;22.78;13.79
67555;HTU21D;54385;53.516;49.456;2024-02-28T05:35:12;22.84;14.01
67555;HTU21D;54385;53.516;49.456;2024-02-28T05:37:54;22.92;13.97
67555;HTU21D;54385;53.516;49.456;2024-02-28T05:40:21;22.99;13.84
67555;HTU21D;54385;53.516;49.456;2024-02-28T05:42:51;23.03;13.62
67555;HTU21D;54385;53.516;49.456;2024-02-28T05:45:18;23.09;13.49
67555;HTU21D;54385;53.516;49.456;2024-02-28T05:47:45;23.13;13.32
67555;HTU21D;54385;53.516;49.456;2024-02-28T05:50:11;23.18;13.16
67555;HTU21D;54385;53.516;49.456;2024-02-28T05:52:41;23.24;13.05
67555;HTU21D;54385;53.516;49.456;2024-02-28T05:55:08;23.29;13.00
67555;HTU21D;54385;53.516;49.456;2024-02-28T05:57:38;23.35;12.65
67555;HTU21D;54385;53.516;49.456;2024-02-28T06:00:05;23.37;12.32
67555;HTU21D;54385;53.516;49.456;2024-02-28T06:02:36;23.39;11.92
67555;HTU21D;54385;53.516;49.456;2024-02-28T06:05:06;23.40;11.72
67555;HTU21D;54385;53.516;49.456;2024-02-28T06:07:33;23.43;11.46
67555;HTU21D;54385;53.516;49.456;2024-02-28T06:10:00;23.45;11.17
67555;HTU21D;54385;53.516;49.456;2024-02-28T06:12:26;23.47;11.04
67555;HTU21D;54385;53.516;49.456;2024-02-28T06:14:53;23.53;10.94
67555;HTU21D;54385;53.516;49.456;2024-02-28T06:17:20;23.58;10.86
67555;HTU21D;54385;53.516;49.456;2024-02-28T06:19:48;23.64;10.82
67555;HTU21D;54385;53.516;49.456;2024-02-28T06:22:15;23.70;10.76
67555;HTU21D;54385;53.516;49.456;2024-02-28T06:24:41;23.75;10.75
67555;HTU21D;54385;53.516;49.456;2024-02-28T06:27:08;23.82;10.70
67555;HTU21D;54385;53.516;49.456;2024-02-28T06:29:39;23.87;10.65
67555;HTU21D;54385;53.516;49.456;2024-02-28T06:32:07;23.94;10.65
67555;HTU21D;54385;53.516;49.456;2024-02-28T06:34:34;24.00;10.64
67555;HTU21D;54385;53.516;49.456;2024-02-28T06:37:00;24.05;10.66
67555;HTU21D;54385;53.516;49.456;2024-02-28T06:39:27;24.14;10.68
67555;HTU21D;54385;53.516;49.456;2024-02-28T06:41:54;24.19;10.62
67555;HTU21D;54385;53.516;49.456;2024-02-28T06:44:21;24.24;10.57
67555;HTU21D;54385;53.516;49.456;2024-02-28T06:46:47;24.28;10.51
67555;HTU21D;54385;53.516;49.456;2024-02-28T06:49:14;24.29;10.46
67555;HTU21D;54385;53.516;49.456;2024-02-28T06:51:45;24.34;10.37
67555;HTU21D;54385;53.516;49.456;2024-02-28T06:54:14;24.35;10.28
67555;HTU21D;54385;53.516;49.456;2024-02-28T06:56:41;24.39;10.13
67555;HTU21D;54385;53.516;49.456;2024-02-28T06:59:10;24.43;9.95
67555;HTU21D;54385;53.516;49.456;2024-02-28T07:01:37;24.45;9.72
67555;HTU21D;54385;53.516;49.456;2024-02-28T07:04:03;24.47;9.40
67555;HTU21D;54385;53.516;49.456;2024-02-28T07:06:30;24.51;9.21
67555;HTU21D;54385;53.516;49.456;2024-02-28T07:08:59;24.55;9.09
67555;HTU21D;54385;53.516;49.456;2024-02-28T07:11:26;24.58;8.95
67555;HTU21D;54385;53.516;49.456;2024-02-28T07:13:53;24.61;8.75
67555;HTU21D;54385;53.516;49.456;2024-02-28T07:16:19;24.63;8.60
67555;HTU21D;54385;53.516;49.456;2024-02-28T07:18:46;24.66;8.47
67555;HTU21D;54385;53.516;49.456;2024-02-28T07:21:13;24.70;8.25
67555;HTU21D;54385;53.516;49.456;2024-02-28T07:23:40;24.71;8.04
67555;HTU21D;54385;53.516;49.456;2024-02-28T07:26:07;24.72;7.85
67555;HTU21D;54385;53.516;49.456;2024-02-28T07:32:00;24.78;7.69
67555;HTU21D;54385;53.516;49.456;2024-02-28T07:34:33;24.82;8.05
67555;HTU21D;54385;53.516;49.456;2024-02-28T07:37:00;24.84;8.06
67555;HTU21D;54385;53.516;49.456;2024-02-28T07:39:30;24.85;8.14
67555;HTU21D;54385;53.516;49.456;2024-02-28T07:41:56;24.89;8.18
67555;HTU21D;54385;53.516;49.456;2024-02-28T07:44:23;24.91;8.14
67555;HTU21D;54385;53.516;49.456;2024-02-28T07:47:00;24.95;8.12
67555;HTU21D;54385;53.516;49.456;2024-02-28T07:49:30;25.01;8.19
67555;HTU21D;54385;53.516;49.456;2024-02-28T07:51:56;25.05;8.31
67555;HTU21D;54385;53.516;49.456;2024-02-28T07:54:23;25.09;8.39
67555;HTU21D;54385;53.516;49.456;2024-02-28T07:56:51;25.16;8.41
67555;HTU21D;54385;53.516;49.456;2024-02-28T07:59:18;25.21;8.39
67555;HTU21D;54385;53.516;49.456;2024-02-28T08:01:45;25.22;8.31
67555;HTU21D;54385;53.516;49.456;2024-02-28T08:04:19;25.24;8.50
67555;HTU21D;54385;53.516;49.456;2024-02-28T08:07:09;25.28;8.45
67555;HTU21D;54385;53.516;49.456;2024-02-28T08:09:39;25.31;8.48
67555;HTU21D;54385;53.516;49.456;2024-02-28T08:12:09;25.33;8.26
67555;HTU21D;54385;53.516;49.456;2024-02-28T08:14:38;25.35;7.99
67555;HTU21D;54385;53.516;49.456;2024-02-28T08:17:07;25.36;7.55
67555;HTU21D;54385;53.516;49.456;2024-02-28T08:19:34;25.37;7.49
67555;HTU21D;54385;53.516;49.456;2024-02-28T08:22:01;25.37;7.20
67555;HTU21D;54385;53.516;49.456;2024-02-28T08:24:31;25.38;6.76
67555;HTU21D;54385;53.516;49.456;2024-02-28T08:26:58;25.40;6.76
67555;HTU21D;54385;53.516;49.456;2024-02-28T08:29:40;25.38;6.33
67555;HTU21D;54385;53.516;49.456;2024-02-28T08:32:16;25.39;5.89
67555;HTU21D;54385;53.516;49.456;2024-02-28T08:34:46;25.40;5.80
67555;HTU21D;54385;53.516;49.456;2024-02-28T08:37:22;25.40;5.75
67555;HTU21D;54385;53.516;49.456;2024-02-28T08:39:49;25.40;5.66
67555;HTU21D;54385;53.516;49.456;2024-02-28T08:42:16;25.40;5.73
67555;HTU21D;54385;53.516;49.456;2024-02-28T08:44:43;25.39;5.72
67555;HTU21D;54385;53.516;49.456;2024-02-28T08:47:13;25.43;5.70
67555;HTU21D;54385;53.516;49.456;2024-02-28T08:49:46;25.45;5.70
67555;HTU21D;54385;53.516;49.456;2024-02-28T08:52:13;25.48;5.70
67555;HTU21D;54385;53.516;49.456;2024-02-28T08:54:44;25.52;5.57
67555;HTU21D;54385;53.516;49.456;2024-02-28T08:57:19;25.54;5.54
67555;HTU21D;54385;53.516;49.456;2024-02-28T08:59:50;25.56;5.60
67555;HTU21D;54385;53.516;49.456;2024-02-28T09:02:17;25.59;5.45
67555;HTU21D;54385;53.516;49.456;2024-02-28T09:04:43;25.60;5.22
67555;HTU21D;54385;53.516;49.456;2024-02-28T09:07:16;25.63;4.91
67555;HTU21D;54385;53.516;49.456;2024-02-28T09:09:47;25.63;4.60
67555;HTU21D;54385;53.516;49.456;2024-02-28T09:12:15;25.62;4.34
67555;HTU21D;54385;53.516;49.456;2024-02-28T09:14:42;25.61;4.08
67555;HTU21D;54385;53.516;49.456;2024-02-28T09:17:11;25.61;3.98
67555;HTU21D;54385;53.516;49.456;2024-02-28T09:19:37;25.63;3.85
67555;HTU21D;54385;53.516;49.456;2024-02-28T09:22:04;25.64;3.80
67555;HTU21D;54385;53.516;49.456;2024-02-28T09:24:31;25.65;3.70
67555;HTU21D;54385;53.516;49.456;2024-02-28T09:27:01;25.68;3.65
67555;HTU21D;54385;53.516;49.456;2024-02-28T09:29:28;25.71;3.57
67555;HTU21D;54385;53.516;49.456;2024-02-28T09:31:54;25.73;3.50
67555;HTU21D;54385;53.516;49.456;2024-02-28T09:34:21;25.72;3.45
67555;HTU21D;54385;53.516;49.456;2024-02-28T09:36:48;25.73;3.28
67555;HTU21D;54385;53.516;49.456;2024-02-28T09:39:15;25.69;3.13
67555;HTU21D;54385;53.516;49.456;2024-02-28T09:41:42;25.68;3.03
67555;HTU21D;54385;53.516;49.456;2024-02-28T09:44:09;25.69;2.96
67555;HTU21D;54385;53.516;49.456;2024-02-28T09:46:35;25.69;2.84
67555;HTU21D;54385;53.516;49.456;2024-02-28T09:49:05;25.68;2.50
67555;HTU21D;54385;53.516;49.456;2024-02-28T09:51:33;25.67;2.56
67555;HTU21D;54385;53.516;49.456;2024-02-28T09:54:02;25.66;2.48
67555;HTU21D;54385;53.516;49.456;2024-02-28T09:56:30;25.66;2.42
67555;HTU21D;54385;53.516;49.456;2024-02-28T09:58:57;25.65;2.32
67555;HTU21D;54385;53.516;49.456;2024-02-28T10:01:28;25.64;2.13
67555;HTU21D;54385;53.516;49.456;2024-02-28T10:03:59;25.63;2.26
67555;HTU21D;54385;53.516;49.456;2024-02-28T10:06:27;25.64;2.33
67555;HTU21D;54385;53.516;49.456;2024-02-28T10:08:54;25.63;2.32
67555;HTU21D;54385;53.516;49.456;2024-02-28T10:11:24;25.64;2.17
67555;HTU21D;54385;53.516;49.456;2024-02-28T10:13:52;25.66;2.21
67555;HTU21D;54385;53.516;49.456;2024-02-28T10:16:21;25.68;2.21
67555;HTU21D;54385;53.516;49.456;2024-02-28T10:18:49;25.72;2.26
67555;HTU21D;54385;53.516;49.456;2024-02-28T10:21:15;25.79;3.62
67555;HTU21D;54385;53.516;49.456;2024-02-28T10:23:42;25.87;6.11
67555;HTU21D;54385;53.516;49.456;2024-02-28T10:26:10;25.97;7.17
67555;HTU21D;54385;53.516;49.456;2024-02-28T10:28:41;26.12;7.79
67555;HTU21D;54385;53.516;49.456;2024-02-28T10:31:10;26.23;7.51
67555;HTU21D;54385;53.516;49.456;2024-02-28T10:33:36;26.33;7.49
67555;HTU21D;54385;53.516;49.456;2024-02-28T10:36:04;26.45;7.46
67555;HTU21D;54385;53.516;49.456;2024-02-28T10:38:32;26.54;7.31
67555;HTU21D;54385;53.516;49.456;2024-02-28T10:41:05;26.64;7.13
67555;HTU21D;54385;53.516;49.456;2024-02-28T10:43:31;26.73;6.98
67555;HTU21D;54385;53.516;49.456;2024-02-28T10:46:04;26.78;6.85
67555;HTU21D;54385;53.516;49.456;2024-02-28T10:48:31;26.84;6.71
67555;HTU21D;54385;53.516;49.456;2024-02-28T10:50:58;26.86;6.60
67555;HTU21D;54385;53.516;49.456;2024-02-28T10:53:45;26.89;6.48
67555;HTU21D;54385;53.516;49.456;2024-02-28T10:56:14;26.93;6.39
67555;HTU21D;54385;53.516;49.456;2024-02-28T10:58:52;26.97;6.35
67555;HTU21D;54385;53.516;49.456;2024-02-28T11:01:19;27.02;6.17
67555;HTU21D;54385;53.516;49.456;2024-02-28T11:03:46;27.09;6.06
67555;HTU21D;54385;53.516;49.456;2024-02-28T11:06:20;27.13;5.89
67555;HTU21D;54385;53.516;49.456;2024-02-28T11:08:48;27.14;5.87
67555;HTU21D;54385;53.516;49.456;2024-02-28T11:11:19;27.13;5.83
67555;HTU21D;54385;53.516;49.456;2024-02-28T11:13:54;27.15;5.69
67555;HTU21D;54385;53.516;49.456;2024-02-28T11:16:32;27.23;5.58
67555;HTU21D;54385;53.516;49.456;2024-02-28T11:19:00;27.35;5.55
67555;HTU21D;54385;53.516;49.456;2024-02-28T11:21:28;27.47;5.44
67555;HTU21D;54385;53.516;49.456;2024-02-28T11:23:59;27.65;5.25
67555;HTU21D;54385;53.516;49.456;2024-02-28T11:26:26;27.75;5.23
67555;HTU21D;54385;53.516;49.456;2024-02-28T11:28:56;27.90;5.09
67555;HTU21D;54385;53.516;49.456;2024-02-28T11:31:23;28.06;5.01
67555;HTU21D;54385;53.516;49.456;2024-02-28T11:33:53;28.21;4.89
67555;HTU21D;54385;53.516;49.456;2024-02-28T11:36:37;28.39;4.77
67555;HTU21D;54385;53.516;49.456;2024-02-28T11:39:06;28.55;4.65
67555;HTU21D;54385;53.516;49.456;2024-02-28T11:41:38;28.70;4.54
67555;HTU21D;54385;53.516;49.456;2024-02-28T11:44:06;28.83;4.45
67555;HTU21D;54385;53.516;49.456;2024-02-28T11:46:32;28.98;4.36
67555;HTU21D;54385;53.516;49.456;2024-02-28T11:49:02;29.13;4.28
67555;HTU21D;54385;53.516;49.456;2024-02-28T11:51:29;29.34;4.16
67555;HTU21D;54385;53.516;49.456;2024-02-28T11:53:56;29.56;4.01
67555;HTU21D;54385;53.516;49.456;2024-02-28T11:56:22;29.74;3.88
67555;HTU21D;54385;53.516;49.456;2024-02-28T11:58:50;29.89;3.75
67555;HTU21D;54385;53.516;49.456;2024-02-28T12:01:17;30.09;3.67
67555;HTU21D;54385;53.516;49.456;2024-02-28T12:03:46;30.28;3.47
67555;HTU21D;54385;53.516;49.456;2024-02-28T12:06:13;30.50;3.43
67555;HTU21D;54385;53.516;49.456;2024-02-28T12:08:40;30.77;3.25
67555;HTU21D;54385;53.516;49.456;2024-02-28T12:11:07;30.94;3.20
67555;HTU21D;54385;53.516;49.456;2024-02-28T12:13:37;31.14;3.05
67555;HTU21D;54385;53.516;49.456;2024-02-28T12:16:04;31.27;2.99
67555;HTU21D;54385;53.516;49.456;2024-02-28T12:18:31;31.39;2.91
67555;HTU21D;54385;53.516;49.456;2024-02-28T12:20:57;31.49;2.88
67555;HTU21D;54385;53.516;49.456;2024-02-28T12:23:27;31.58;2.81
67555;HTU21D;54385;53.516;49.456;2024-02-28T12:25:57;31.70;2.79
67555;HTU21D;54385;53.516;49.456;2024-02-28T12:28:23;31.81;2.72
67555;HTU21D;54385;53.516;49.456;2024-02-28T12:30:50;31.93;2.70
67555;HTU21D;54385;53.516;49.456;2024-02-28T12:33:22;32.05;2.60
67555;HTU21D;54385;53.516;49.456;2024-02-28T12:35:49;32.09;2.56
67555;HTU21D;54385;53.516;49.456;2024-02-28T12:38:19;32.05;2.57
67555;HTU21D;54385;53.516;49.456;2024-02-28T12:40:49;31.92;2.64
67555;HTU21D;54385;53.516;49.456;2024-02-28T12:43:16;31.75;2.69
67555;HTU21D;54385;53.516;49.456;2024-02-28T12:45:42;31.67;2.71
67555;HTU21D;54385;53.516;49.456;2024-02-28T12:48:09;31.58;2.79
67555;HTU21D;54385;53.516;49.456;2024-02-28T12:50:36;31.57;2.77
67555;HTU21D;54385;53.516;49.456;2024-02-28T12:53:02;31.55;2.78
67555;HTU21D;54385;53.516;49.456;2024-02-28T12:55:29;31.38;2.84
67555;HTU21D;54385;53.516;49.456;2024-02-28T12:57:56;31.12;2.96
67555;HTU21D;54385;53.516;49.456;2024-02-28T13:00:23;30.91;3.04
67555;HTU21D;54385;53.516;49.456;2024-02-28T13:02:50;30.72;3.16
67555;HTU21D;54385;53.516;49.456;2024-02-28T13:05:17;30.54;3.22
67555;HTU21D;54385;53.516;49.456;2024-02-28T13:07:44;30.38;3.28
67555;HTU21D;54385;53.516;49.456;2024-02-28T13:10:10;30.16;3.39
67555;HTU21D;54385;53.516;49.456;2024-02-28T13:12:40;29.93;3.44
67555;HTU21D;54385;53.516;49.456;2024-02-28T13:15:07;29.72;3.58
67555;HTU21D;54385;53.516;49.456;2024-02-28T13:17:34;29.62;3.63
67555;HTU21D;54385;53.516;49.456;2024-02-28T13:20:01;29.58;3.64
67555;HTU21D;54385;53.516;49.456;2024-02-28T13:22:29;29.43;3.69
67555;HTU21D;54385;53.516;49.456;2024-02-28T13:24:56;29.09;3.82
67555;HTU21D;54385;53.516;49.456;2024-02-28T13:27:22;28.84;3.96
67555;HTU21D;54385;53.516;49.456;2024-02-28T13:29:49;28.64;4.06
67555;HTU21D;54385;53.516;49.456;2024-02-28T13:32:16;28.42;4.19
67555;HTU21D;54385;53.516;49.456;2024-02-28T13:34:42;28.23;4.28
67555;HTU21D;54385;53.516;49.456;2024-02-28T13:37:09;28.05;4.35
67555;HTU21D;54385;53.516;49.456;2024-02-28T13:39:36;27.87;4.44
67555;HTU21D;54385;53.516;49.456;2024-02-28T13:42:02;27.59;4.57
67555;HTU21D;54385;53.516;49.456;2024-02-28T13:44:32;27.31;4.73
67555;HTU21D;54385;53.516;49.456;2024-02-28T13:47:00;27.05;4.87
67555;HTU21D;54385;53.516;49.456;2024-02-28T13:49:27;26.90;4.96
67555;HTU21D;54385;53.516;49.456;2024-02-28T13:51:54;26.76;5.02
67555;HTU21D;54385;53.516;49.456;2024-02-28T13:54:20;26.54;5.12
67555;HTU21D;54385;53.516;49.456;2024-02-28T13:56:47;26.28;5.27
67555;HTU21D;54385;53.516;49.456;2024-02-28T13:59:14;26.03;5.43
67555;HTU21D;54385;53.516;49.456;2024-02-28T14:01:40;25.79;5.56
67555;HTU21D;54385;53.516;49.456;2024-02-28T14:04:07;25.59;5.67
67555;HTU21D;54385;53.516;49.456;2024-02-28T14:06:34;25.38;5.77
67555;HTU21D;54385;53.516;49.456;2024-02-28T14:09:00;25.19;5.89
67555;HTU21D;54385;53.516;49.456;2024-02-28T14:11:27;25.02;6.01
67555;HTU21D;54385;53.516;49.456;2024-02-28T14:13:53;24.86;6.08
67555;HTU21D;54385;53.516;49.456;2024-02-28T14:16:20;24.73;6.17
67555;HTU21D;54385;53.516;49.456;2024-02-28T14:18:47;24.57;6.25
67555;HTU21D;54385;53.516;49.456;2024-02-28T14:21:14;24.44;6.34
67555;HTU21D;54385;53.516;49.456;2024-02-28T14:23:40;24.30;6.42
67555;HTU21D;54385;53.516;49.456;2024-02-28T14:26:10;24.18;6.49
67555;HTU21D;54385;53.516;49.456;2024-02-28T14:28:37;24.06;6.56
67555;HTU21D;54385;53.516;49.456;2024-02-28T14:31:05;23.97;6.64
67555;HTU21D;54385;53.516;49.456;2024-02-28T14:33:31;23.87;6.68
67555;HTU21D;54385;53.516;49.456;2024-02-28T14:35:58;23.77;6.76
67555;HTU21D;54385;53.516;49.456;2024-02-28T14:38:26;23.69;6.82
67555;HTU21D;54385;53.516;49.456;2024-02-28T14:40:53;23.59;6.86
67555;HTU21D;54385;53.516;49.456;2024-02-28T14:43:19;23.52;6.92
67555;HTU21D;54385;53.516;49.456;2024-02-28T14:45:46;23.44;6.97
67555;HTU21D;54385;53.516;49.456;2024-02-28T14:48:13;23.38;7.02
67555;HTU21D;54385;53.516;49.456;2024-02-28T14:50:40;23.31;7.04
67555;HTU21D;54385;53.516;49.456;2024-02-28T14:53:08;23.28;7.08
67555;HTU21D;54385;53.516;49.456;2024-02-28T14:55:34;23.21;7.10
67555;HTU21D;54385;53.516;49.456;2024-02-28T14:58:01;23.15;7.15
67555;HTU21D;54385;53.516;49.456;2024-02-28T15:00:28;23.11;7.18
67555;HTU21D;54385;53.516;49.456;2024-02-28T15:02:54;23.06;7.20
67555;HTU21D;54385;53.516;49.456;2024-02-28T15:05:21;23.00;7.24
67555;HTU21D;54385;53.516;49.456;2024-02-28T15:07:48;22.95;7.26
67555;HTU21D;54385;53.516;49.456;2024-02-28T15:10:14;22.92;7.28
67555;HTU21D;54385;53.516;49.456;2024-02-28T15:12:41;22.87;7.31
67555;HTU21D;54385;53.516;49.456;2024-02-28T15:15:08;22.83;7.32
67555;HTU21D;54385;53.516;49.456;2024-02-28T15:17:38;22.79;7.37
67555;HTU21D;54385;53.516;49.456;2024-02-28T15:20:05;22.75;7.38